sensor_id;sensor_type;location;lat;lon;timestamp;pressure;altitude;pressure_sealevel;temperature;humidity
46347;BME280;32057;47.830;19.046;2023-04-30T00:01:40;100110.28;;;9.42;100.00
46347;BME280;32057;47.830;19.046;2023-04-30T00:04:05;100105.03;;;9.39;100.00
46347;BME280;32057;47.830;19.046;2023-04-30T00:06:30;100108.38;;;9.33;100.00
46347;BME280;32057;47.830;19.046;2023-04-30T00:08:59;100104.00;;;9.32;100.00
46347;BME280;32057;47.830;19.046;2023-04-30T00:11:24;100107.56;;;9.36;100.00
46347;BME280;32057;47.830;19.046;2023-04-30T00:13:50;100111.97;;;9.39;100.00
46347;BME280;32057;47.830;19.046;2023-04-30T00:16:21;100099.94;;;9.44;100.00
46347;BME280;32057;47.830;19.046;2023-04-30T00:18:46;100107.69;;;9.41;100.00
46347;BME280;32057;47.830;19.046;2023-04-30T00:21:12;100105.00;;;9.37;100.00
46347;BME280;32057;47.830;19.046;2023-04-30T00:23:37;100098.03;;;9.36;100.00
46347;BME280;32057;47.830;19.046;2023-04-30T00:26:03;100098.78;;;9.29;100.00
46347;BME280;32057;47.830;19.046;2023-04-30T00:28:28;100097.13;;;9.33;100.00
46347;BME280;32057;47.830;19.046;2023-04-30T00:30:54;100099.78;;;9.36;100.00
46347;BME280;32057;47.830;19.046;2023-04-30T00:33:19;100100.72;;;9.40;100.00
46347;BME280;32057;47.830;19.046;2023-04-30T00:35:46;100098.00;;;9.33;100.00
46347;BME280;32057;47.830;19.046;2023-04-30T00:38:11;100106.78;;;9.40;100.00
46347;BME280;32057;47.830;19.046;2023-04-30T00:40:37;100105.13;;;9.44;100.00
46347;BME280;32057;47.830;19.046;2023-04-30T00:43:04;100097.34;;;9.44;100.00
46347;BME280;32057;47.830;19.046;2023-04-30T00:45:30;100106.13;;;9.49;100.00
46347;BME280;32057;47.830;19.046;2023-04-30T00:47:55;100100.09;;;9.51;100.00
46347;BME280;32057;47.830;19.046;2023-04-30T00:50:21;100097.56;;;9.54;100.00
46347;BME280;32057;47.830;19.046;2023-04-30T00:52:47;100100.94;;;9.49;100.00
46347;BME280;32057;47.830;19.046;2023-04-30T00:55:12;100104.25;;;9.43;100.00
46347;BME280;32057;47.830;19.046;2023-04-30T00:57:41;100098.03;;;9.36;100.00
46347;BME280;32057;47.830;19.046;2023-04-30T01:00:07;100105.78;;;9.33;100.00
46347;BME280;32057;47.830;19.046;2023-04-30T01:02:39;100101.94;;;9.16;100.00
46347;BME280;32057;47.830;19.046;2023-04-30T01:05:05;100097.19;;;8.98;100.00
46347;BME280;32057;47.830;19.046;2023-04-30T01:07:32;100096.59;;;8.72;100.00
46347;BME280;32057;47.830;19.046;2023-04-30T01:09:59;100092.94;;;8.64;100.00
46347;BME280;32057;47.830;19.046;2023-04-30T01:15:09;100098.09;;;8.62;100.00
46347;BME280;32057;47.830;19.046;2023-04-30T01:17:53;100095.63;;;8.67;100.00
46347;BME280;32057;47.830;19.046;2023-04-30T01:20:20;100092.16;;;8.68;100.00
46347;BME280;32057;47.830;19.046;2023-04-30T01:25:52;100100.09;;;8.74;100.00
46347;BME280;32057;47.830;19.046;2023-04-30T01:28:24;100095.97;;;8.82;100.00
46347;BME280;32057;47.830;19.046;2023-04-30T01:30:50;100090.78;;;8.82;100.00
46347;BME280;32057;47.830;19.046;2023-04-30T01:33:16;100085.72;;;8.88;100.00
46347;BME280;32057;47.830;19.046;2023-04-30T01:38:21;100083.06;;;8.85;100.00
46347;BME280;32057;47.830;19.046;2023-04-30T01:40:56;100084.94;;;8.91;100.00
46347;BME280;32057;47.830;19.046;2023-04-30T01:43:32;100090.22;;;8.95;100.00
46347;BME280;32057;47.830;19.046;2023-04-30T01:48:40;100081.13;;;9.13;100.00
46347;BME280;32057;47.830;19.046;2023-04-30T01:51:27;100090.72;;;9.18;100.00
46347;BME280;32057;47.830;19.046;2023-04-30T01:54:02;100088.25;;;9.23;100.00
46347;BME280;32057;47.830;19.046;2023-04-30T01:56:31;100087.47;;;9.27;100.00
46347;BME280;32057;47.830;19.046;2023-04-30T01:59:03;100081.47;;;9.30;100.00
46347;BME280;32057;47.830;19.046;2023-04-30T02:01:30;100089.34;;;9.34;100.00
46347;BME280;32057;47.830;19.046;2023-04-30T02:03:59;100087.59;;;9.33;100.00
46347;BME280;32057;47.830;19.046;2023-04-30T02:06:25;100089.38;;;9.36;100.00
46347;BME280;32057;47.830;19.046;2023-04-30T02:08:53;100088.50;;;9.35;100.00
46347;BME280;32057;47.830;19.046;2023-04-30T02:11:18;100094.66;;;9.39;100.00
46347;BME280;32057;47.830;19.046;2023-04-30T02:13:44;100084.56;;;9.53;100.00
46347;BME280;32057;47.830;19.046;2023-04-30T02:16:09;100078.00;;;9.72;100.00
46347;BME280;32057;47.830;19.046;2023-04-30T02:18:35;100089.44;;;9.82;100.00
46347;BME280;32057;47.830;19.046;2023-04-30T02:21:00;100085.19;;;9.85;100.00
46347;BME280;32057;47.830;19.046;2023-04-30T02:23:26;100089.69;;;9.94;100.00
46347;BME280;32057;47.830;19.046;2023-04-30T02:25:51;100087.19;;;9.99;100.00
46347;BME280;32057;47.830;19.046;2023-04-30T02:28:17;100086.19;;;9.92;100.00
46347;BME280;32057;47.830;19.046;2023-04-30T02:30:42;100088.75;;;9.90;100.00
46347;BME280;32057;47.830;19.046;2023-04-30T02:33:07;100080.94;;;9.89;100.00
46347;BME280;32057;47.830;19.046;2023-04-30T02:35:36;100082.66;;;9.90;100.00
46347;BME280;32057;47.830;19.046;2023-04-30T02:38:02;100084.44;;;9.91;100.00
46347;BME280;32057;47.830;19.046;2023-04-30T02:40:27;100080.94;;;9.89;100.00
46347;BME280;32057;47.830;19.046;2023-04-30T02:42:53;100082.63;;;9.87;100.00
46347;BME280;32057;47.830;19.046;2023-04-30T02:45:20;100080.00;;;9.85;100.00
46347;BME280;32057;47.830;19.046;2023-04-30T02:47:46;100079.91;;;9.81;100.00
46347;BME280;32057;47.830;19.046;2023-04-30T02:50:13;100080.72;;;9.76;100.00
46347;BME280;32057;47.830;19.046;2023-04-30T02:52:39;100090.13;;;9.71;100.00
46347;BME280;32057;47.830;19.046;2023-04-30T02:55:05;100088.31;;;9.67;100.00
46347;BME280;32057;47.830;19.046;2023-04-30T02:57:30;100086.41;;;9.60;100.00
46347;BME280;32057;47.830;19.046;2023-04-30T02:59:56;100082.09;;;9.59;100.00
46347;BME280;32057;47.830;19.046;2023-04-30T03:02:21;100084.72;;;9.61;100.00
46347;BME280;32057;47.830;19.046;2023-04-30T03:04:48;100088.28;;;9.66;100.00
46347;BME280;32057;47.830;19.046;2023-04-30T03:07:16;100080.59;;;9.72;100.00
46347;BME280;32057;47.830;19.046;2023-04-30T03:09:42;100085.94;;;9.80;100.00
46347;BME280;32057;47.830;19.046;2023-04-30T03:12:08;100086.13;;;9.89;100.00
46347;BME280;32057;47.830;19.046;2023-04-30T03:14:33;100090.59;;;9.96;100.00
46347;BME280;32057;47.830;19.046;2023-04-30T03:16:59;100093.19;;;9.96;100.00
46347;BME280;32057;47.830;19.046;2023-04-30T03:19:24;100091.44;;;9.95;100.00
46347;BME280;32057;47.830;19.046;2023-04-30T03:21:50;100098.34;;;9.93;100.00
46347;BME280;32057;47.830;19.046;2023-04-30T03:24:17;100097.47;;;9.94;100.00
46347;BME280;32057;47.830;19.046;2023-04-30T03:26:42;100105.22;;;9.91;100.00
46347;BME280;32057;47.830;19.046;2023-04-30T03:29:10;100097.44;;;9.91;100.00
46347;BME280;32057;47.830;19.046;2023-04-30T03:31:35;100100.91;;;9.91;100.00
46347;BME280;32057;47.830;19.046;2023-04-30T03:34:01;100101.78;;;9.92;100.00
46347;BME280;32057;47.830;19.046;2023-04-30T03:36:26;100112.16;;;9.92;100.00
46347;BME280;32057;47.830;19.046;2023-04-30T03:38:52;100109.59;;;9.93;100.00
46347;BME280;32057;47.830;19.046;2023-04-30T03:41:18;100108.75;;;9.93;100.00
46347;BME280;32057;47.830;19.046;2023-04-30T03:43:43;100106.09;;;9.91;100.00
46347;BME280;32057;47.830;19.046;2023-04-30T03:46:09;100112.16;;;9.92;100.00
46347;BME280;32057;47.830;19.046;2023-04-30T03:48:34;100111.28;;;9.91;100.00
46347;BME280;32057;47.830;19.046;2023-04-30T03:51:00;100112.97;;;9.88;100.00
46347;BME280;32057;47.830;19.046;2023-04-30T03:53:25;100124.22;;;9.87;100.00
46347;BME280;32057;47.830;19.046;2023-04-30T03:55:52;100124.22;;;9.87;100.00
46347;BME280;32057;47.830;19.046;2023-04-30T03:58:18;100124.13;;;9.84;100.00
46347;BME280;32057;47.830;19.046;2023-04-30T04:00:43;100123.22;;;9.82;100.00
46347;BME280;32057;47.830;19.046;2023-04-30T04:03:10;100136.22;;;9.82;100.00
46347;BME280;32057;47.830;19.046;2023-04-30T04:05:36;100127.53;;;9.80;100.00
46347;BME280;32057;47.830;19.046;2023-04-30T04:08:01;100132.69;;;9.76;100.00
46347;BME280;32057;47.830;19.046;2023-04-30T04:10:27;100135.19;;;9.73;100.00
46347;BME280;32057;47.830;19.046;2023-04-30T04:12:52;100143.00;;;9.73;100.00
46347;BME280;32057;47.830;19.046;2023-04-30T04:15:18;100139.53;;;9.74;100.00
46347;BME280;32057;47.830;19.046;2023-04-30T04:17:43;100141.22;;;9.72;100.00
46347;BME280;32057;47.830;19.046;2023-04-30T04:20:09;100142.00;;;9.68;100.00
46347;BME280;32057;47.830;19.046;2023-04-30T04:22:35;100148.06;;;9.67;100.00
46347;BME280;32057;47.830;19.046;2023-04-30T04:25:00;100147.19;;;9.68;100.00
46347;BME280;32057;47.830;19.046;2023-04-30T04:27:25;100159.72;;;9.88;100.00
46347;BME280;32057;47.830;19.046;2023-04-30T04:29:51;100159.06;;;9.98;100.00
46347;BME280;32057;47.830;19.046;2023-04-30T04:32:17;100156.91;;;10.20;100.00
46347;BME280;32057;47.830;19.046;2023-04-30T04:34:42;100148.22;;;10.65;100.00
46347;BME280;32057;47.830;19.046;2023-04-30T04:37:08;100152.16;;;10.44;100.00
46347;BME280;32057;47.830;19.046;2023-04-30T04:39:34;100150.56;;;10.51;100.00
46347;BME280;32057;47.830;19.046;2023-04-30T04:42:01;100154.53;;;10.79;100.00
46347;BME280;32057;47.830;19.046;2023-04-30T04:44:27;100157.13;;;10.79;100.00
46347;BME280;32057;47.830;19.046;2023-04-30T04:46:53;100165.63;;;10.69;100.00
46347;BME280;32057;47.830;19.046;2023-04-30T04:49:18;100157.97;;;10.78;100.00
46347;BME280;32057;47.830;19.046;2023-04-30T04:51:45;100162.72;;;11.04;100.00
46347;BME280;32057;47.830;19.046;2023-04-30T04:54:10;100162.72;;;11.04;100.00
46347;BME280;32057;47.830;19.046;2023-04-30T04:56:35;100166.31;;;11.12;100.00
46347;BME280;32057;47.830;19.046;2023-04-30T04:59:01;100160.34;;;11.19;100.00
46347;BME280;32057;47.830;19.046;2023-04-30T05:01:26;100166.47;;;11.21;100.00
46347;BME280;32057;47.830;19.046;2023-04-30T05:03:52;100161.50;;;11.36;100.00
46347;BME280;32057;47.830;19.046;2023-04-30T05:06:18;100160.97;;;11.64;100.00
46347;BME280;32057;47.830;19.046;2023-04-30T05:08:43;100157.69;;;11.77;100.00
46347;BME280;32057;47.830;19.046;2023-04-30T05:11:09;100158.09;;;12.09;100.00
46347;BME280;32057;47.830;19.046;2023-04-30T05:13:34;100164.19;;;12.10;100.00
46347;BME280;32057;47.830;19.046;2023-04-30T05:16:00;100157.63;;;12.44;100.00
46347;BME280;32057;47.830;19.046;2023-04-30T05:18:26;100163.91;;;12.66;100.00
46347;BME280;32057;47.830;19.046;2023-04-30T05:20:51;100159.75;;;12.88;100.00
46347;BME280;32057;47.830;19.046;2023-04-30T05:23:17;100163.44;;;13.17;100.00
46347;BME280;32057;47.830;19.046;2023-04-30T05:25:42;100160.03;;;13.28;100.00
46347;BME280;32057;47.830;19.046;2023-04-30T05:28:07;100163.69;;;13.55;100.00
46347;BME280;32057;47.830;19.046;2023-04-30T05:30:33;100173.41;;;13.76;100.00
46347;BME280;32057;47.830;19.046;2023-04-30T05:32:58;100167.38;;;13.91;100.00
46347;BME280;32057;47.830;19.046;2023-04-30T05:35:24;100175.25;;;14.02;100.00
46347;BME280;32057;47.830;19.046;2023-04-30T05:37:49;100168.34;;;14.27;100.00
46347;BME280;32057;47.830;19.046;2023-04-30T05:40:15;100167.50;;;14.43;100.00
46347;BME280;32057;47.830;19.046;2023-04-30T05:42:41;100164.13;;;14.66;100.00
46347;BME280;32057;47.830;19.046;2023-04-30T05:45:11;100171.09;;;14.64;100.00
46347;BME280;32057;47.830;19.046;2023-04-30T05:47:41;100161.47;;;14.81;100.00
46347;BME280;32057;47.830;19.046;2023-04-30T05:50:08;100169.38;;;14.92;100.00
46347;BME280;32057;47.830;19.046;2023-04-30T05:52:34;100161.47;;;15.07;100.00
46347;BME280;32057;47.830;19.046;2023-04-30T05:54:59;100164.13;;;15.12;100.00
46347;BME280;32057;47.830;19.046;2023-04-30T05:57:25;100163.22;;;15.21;100.00
46347;BME280;32057;47.830;19.046;2023-04-30T05:59:50;100171.09;;;15.30;99.70
46347;BME280;32057;47.830;19.046;2023-04-30T06:02:15;100164.91;;;15.52;100.00
46347;BME280;32057;47.830;19.046;2023-04-30T06:04:41;100164.88;;;15.74;100.00
46347;BME280;32057;47.830;19.046;2023-04-30T06:07:07;100163.03;;;15.91;100.00
46347;BME280;32057;47.830;19.046;2023-04-30T06:09:33;100161.34;;;15.70;98.54
46347;BME280;32057;47.830;19.046;2023-04-30T06:11:58;100161.28;;;15.97;98.88
46347;BME280;32057;47.830;19.046;2023-04-30T06:14:24;100158.72;;;15.83;97.52
46347;BME280;32057;47.830;19.046;2023-04-30T06:16:49;100151.66;;;16.00;98.02
46347;BME280;32057;47.830;19.046;2023-04-30T06:19:15;100155.94;;;16.15;96.73
46347;BME280;32057;47.830;19.046;2023-04-30T06:21:40;100159.34;;;16.36;95.64
46347;BME280;32057;47.830;19.046;2023-04-30T06:24:08;100154.06;;;16.40;92.38
46347;BME280;32057;47.830;19.046;2023-04-30T06:26:33;100155.72;;;16.50;91.32
46347;BME280;32057;47.830;19.046;2023-04-30T06:28:59;100161.84;;;16.49;91.71
46347;BME280;32057;47.830;19.046;2023-04-30T06:31:25;100154.81;;;16.58;91.99
46347;BME280;32057;47.830;19.046;2023-04-30T06:33:53;100170.81;;;16.15;92.97
46347;BME280;32057;47.830;19.046;2023-04-30T06:36:19;100162.09;;;16.12;93.80
46347;BME280;32057;47.830;19.046;2023-04-30T06:38:47;100152.41;;;16.24;94.38
46347;BME280;32057;47.830;19.046;2023-04-30T06:41:13;100162.19;;;15.94;95.24
46347;BME280;32057;47.830;19.046;2023-04-30T06:43:39;100161.34;;;15.86;94.32
46347;BME280;32057;47.830;19.046;2023-04-30T06:46:04;100163.00;;;15.99;94.82
46347;BME280;32057;47.830;19.046;2023-04-30T06:48:31;100163.81;;;16.17;94.37
46347;BME280;32057;47.830;19.046;2023-04-30T06:50:57;100161.00;;;16.49;94.34
46347;BME280;32057;47.830;19.046;2023-04-30T06:53:22;100163.56;;;16.57;91.49
46347;BME280;32057;47.830;19.046;2023-04-30T06:55:48;100160.13;;;16.48;89.85
46347;BME280;32057;47.830;19.046;2023-04-30T06:58:13;100153.09;;;16.53;88.44
46347;BME280;32057;47.830;19.046;2023-04-30T07:00:39;100155.53;;;16.78;87.64
46347;BME280;32057;47.830;19.046;2023-04-30T07:03:04;100156.22;;;17.05;88.64
46347;BME280;32057;47.830;19.046;2023-04-30T07:05:30;100163.19;;;17.09;85.95
46347;BME280;32057;47.830;19.046;2023-04-30T07:07:57;100160.50;;;17.15;87.05
46347;BME280;32057;47.830;19.046;2023-04-30T07:10:23;100157.59;;;17.41;87.72
46347;BME280;32057;47.830;19.046;2023-04-30T07:12:48;100163.97;;;17.19;84.68
46347;BME280;32057;47.830;19.046;2023-04-30T07:15:14;100166.25;;;17.52;84.09
46347;BME280;32057;47.830;19.046;2023-04-30T07:17:39;100157.00;;;17.15;85.33
46347;BME280;32057;47.830;19.046;2023-04-30T07:20:07;100165.47;;;17.46;82.79
46347;BME280;32057;47.830;19.046;2023-04-30T07:22:32;100157.38;;;17.64;76.39
46347;BME280;32057;47.830;19.046;2023-04-30T07:24:58;100157.81;;;18.03;71.86
46347;BME280;32057;47.830;19.046;2023-04-30T07:27:25;100165.81;;;17.96;69.80
46347;BME280;32057;47.830;19.046;2023-04-30T07:29:50;100166.72;;;17.08;74.64
46347;BME280;32057;47.830;19.046;2023-04-30T07:32:16;100168.88;;;17.54;73.95
46347;BME280;32057;47.830;19.046;2023-04-30T07:34:41;100165.41;;;17.49;73.31
46347;BME280;32057;47.830;19.046;2023-04-30T07:37:07;100167.75;;;17.75;73.35
46347;BME280;32057;47.830;19.046;2023-04-30T07:39:36;100170.00;;;17.31;72.46
46347;BME280;32057;47.830;19.046;2023-04-30T07:42:02;100170.16;;;17.16;73.45
46347;BME280;32057;47.830;19.046;2023-04-30T07:44:30;100170.53;;;16.61;74.71
46347;BME280;32057;47.830;19.046;2023-04-30T07:46:56;100171.44;;;16.57;75.89
46347;BME280;32057;47.830;19.046;2023-04-30T07:49:21;100165.25;;;16.70;76.95
46347;BME280;32057;47.830;19.046;2023-04-30T07:51:47;100170.63;;;16.51;77.17
46347;BME280;32057;47.830;19.046;2023-04-30T07:54:12;100171.31;;;16.80;75.68
46347;BME280;32057;47.830;19.046;2023-04-30T07:56:38;100175.63;;;16.88;74.00
46347;BME280;32057;47.830;19.046;2023-04-30T07:59:04;100169.50;;;16.88;73.28
46347;BME280;32057;47.830;19.046;2023-04-30T08:01:29;100175.75;;;16.65;75.31
46347;BME280;32057;47.830;19.046;2023-04-30T08:03:55;100172.47;;;16.31;75.80
46347;BME280;32057;47.830;19.046;2023-04-30T08:06:20;100178.25;;;16.87;75.16
46347;BME280;32057;47.830;19.046;2023-04-30T08:08:46;100180.06;;;16.82;72.59
46347;BME280;32057;47.830;19.046;2023-04-30T08:11:12;100182.03;;;16.44;73.78
46347;BME280;32057;47.830;19.046;2023-04-30T08:13:37;100181.25;;;16.27;75.16
46347;BME280;32057;47.830;19.046;2023-04-30T08:16:03;100167.84;;;16.71;76.16
46347;BME280;32057;47.830;19.046;2023-04-30T08:18:28;100177.06;;;17.23;70.62
46347;BME280;32057;47.830;19.046;2023-04-30T08:20:54;100176.50;;;17.79;71.41
46347;BME280;32057;47.830;19.046;2023-04-30T08:23:19;100172.94;;;17.86;67.66
46347;BME280;32057;47.830;19.046;2023-04-30T08:25:45;100174.91;;;17.65;67.66
46347;BME280;32057;47.830;19.046;2023-04-30T08:28:11;100179.97;;;16.94;69.57
46347;BME280;32057;47.830;19.046;2023-04-30T08:30:36;100181.00;;;16.67;69.29
46347;BME280;32057;47.830;19.046;2023-04-30T08:33:02;100181.09;;;16.55;71.00
46347;BME280;32057;47.830;19.046;2023-04-30T08:35:27;100182.16;;;16.21;70.76
46347;BME280;32057;47.830;19.046;2023-04-30T08:37:54;100182.91;;;16.43;69.95
46347;BME280;32057;47.830;19.046;2023-04-30T08:40:20;100183.84;;;16.33;71.11
46347;BME280;32057;47.830;19.046;2023-04-30T08:43:06;100183.06;;;16.19;69.37
46347;BME280;32057;47.830;19.046;2023-04-30T08:45:32;100175.94;;;16.42;69.53
46347;BME280;32057;47.830;19.046;2023-04-30T08:47:59;100171.34;;;16.69;70.13
46347;BME280;32057;47.830;19.046;2023-04-30T08:50:26;100174.63;;;17.03;70.58
46347;BME280;32057;47.830;19.046;2023-04-30T08:52:52;100170.09;;;17.22;66.53
46347;BME280;32057;47.830;19.046;2023-04-30T08:55:18;100171.66;;;17.40;67.57
46347;BME280;32057;47.830;19.046;2023-04-30T08:57:43;100180.34;;;17.47;63.56
46347;BME280;32057;47.830;19.046;2023-04-30T09:00:09;100177.09;;;17.22;66.99
46347;BME280;32057;47.830;19.046;2023-04-30T09:02:39;100176.06;;;17.37;66.63
46347;BME280;32057;47.830;19.046;2023-04-30T09:05:11;100178.41;;;17.66;69.03
46347;BME280;32057;47.830;19.046;2023-04-30T09:07:39;100172.22;;;17.70;64.98
46347;BME280;32057;47.830;19.046;2023-04-30T09:10:19;100173.16;;;17.63;64.21
46347;BME280;32057;47.830;19.046;2023-04-30T09:13:06;100171.00;;;17.18;67.73
46347;BME280;32057;47.830;19.046;2023-04-30T09:15:33;100171.06;;;17.10;63.71
46347;BME280;32057;47.830;19.046;2023-04-30T09:18:07;100173.75;;;17.01;64.98
46347;BME280;32057;47.830;19.046;2023-04-30T09:20:33;100171.34;;;16.72;66.28
46347;BME280;32057;47.830;19.046;2023-04-30T09:23:09;100169.56;;;16.82;66.82
46347;BME280;32057;47.830;19.046;2023-04-30T09:25:39;100167.75;;;16.88;64.39
46347;BME280;32057;47.830;19.046;2023-04-30T09:28:12;100167.78;;;16.84;64.86
46347;BME280;32057;47.830;19.046;2023-04-30T09:30:41;100166.03;;;16.81;65.99
46347;BME280;32057;47.830;19.046;2023-04-30T09:33:07;100168.63;;;16.87;64.17
46347;BME280;32057;47.830;19.046;2023-04-30T09:35:37;100160.63;;;17.01;63.53
46347;BME280;32057;47.830;19.046;2023-04-30T09:38:03;100154.31;;;17.19;63.21
46347;BME280;32057;47.830;19.046;2023-04-30T09:40:39;100161.19;;;17.36;64.36
46347;BME280;32057;47.830;19.046;2023-04-30T09:43:06;100162.00;;;17.41;63.99
46347;BME280;32057;47.830;19.046;2023-04-30T09:45:47;100154.97;;;17.43;63.56
46347;BME280;32057;47.830;19.046;2023-04-30T09:48:14;100154.97;;;17.41;63.55
46347;BME280;32057;47.830;19.046;2023-04-30T09:50:41;100151.94;;;17.80;62.91
46347;BME280;32057;47.830;19.046;2023-04-30T09:53:08;100144.41;;;18.22;64.22
46347;BME280;32057;47.830;19.046;2023-04-30T09:55:35;100134.97;;;18.63;61.60
46347;BME280;32057;47.830;19.046;2023-04-30T09:58:08;100135.88;;;18.63;62.45
46347;BME280;32057;47.830;19.046;2023-04-30T10:00:35;100132.91;;;18.26;61.79
46347;BME280;32057;47.830;19.046;2023-04-30T10:03:05;100136.69;;;18.08;59.16
46347;BME280;32057;47.830;19.046;2023-04-30T10:05:36;100149.09;;;17.97;60.90
46347;BME280;32057;47.830;19.046;2023-04-30T10:08:03;100145.91;;;17.68;61.33
46347;BME280;32057;47.830;19.046;2023-04-30T10:10:30;100145.13;;;17.63;60.67
46347;BME280;32057;47.830;19.046;2023-04-30T10:12:59;100142.53;;;17.57;58.48
46347;BME280;32057;47.830;19.046;2023-04-30T10:15:32;100137.22;;;17.62;60.20
46347;BME280;32057;47.830;19.046;2023-04-30T10:18:14;100138.94;;;17.66;60.13
46347;BME280;32057;47.830;19.046;2023-04-30T10:20:45;100140.50;;;17.84;59.98
46347;BME280;32057;47.830;19.046;2023-04-30T10:23:11;100130.28;;;18.26;62.14
46347;BME280;32057;47.830;19.046;2023-04-30T10:25:37;100134.31;;;18.50;57.54
46347;BME280;32057;47.830;19.046;2023-04-30T10:28:07;100134.25;;;18.53;54.90
46347;BME280;32057;47.830;19.046;2023-04-30T10:30:34;100129.28;;;18.92;57.26
46347;BME280;32057;47.830;19.046;2023-04-30T10:36:03;100124.13;;;18.84;56.56
46347;BME280;32057;47.830;19.046;2023-04-30T10:38:31;100124.97;;;18.86;61.38
46347;BME280;32057;47.830;19.046;2023-04-30T10:41:00;100120.09;;;18.62;58.95
46347;BME280;32057;47.830;19.046;2023-04-30T10:43:29;100121.78;;;18.64;55.31
46347;BME280;32057;47.830;19.046;2023-04-30T10:45:59;100120.13;;;18.59;54.46
46347;BME280;32057;47.830;19.046;2023-04-30T10:48:24;100125.19;;;18.14;56.85
46347;BME280;32057;47.830;19.046;2023-04-30T10:50:54;100130.56;;;18.07;57.17
46347;BME280;32057;47.830;19.046;2023-04-30T10:53:20;100130.88;;;17.80;56.51
46347;BME280;32057;47.830;19.046;2023-04-30T10:56:00;100134.31;;;17.89;59.19
46347;BME280;32057;47.830;19.046;2023-04-30T10:58:37;100139.66;;;17.79;56.02
46347;BME280;32057;47.830;19.046;2023-04-30T11:01:14;100139.53;;;17.91;56.69
46347;BME280;32057;47.830;19.046;2023-04-30T11:04:03;100144.91;;;17.80;58.42
46347;BME280;32057;47.830;19.046;2023-04-30T11:06:48;100139.53;;;17.91;60.79
46347;BME280;32057;47.830;19.046;2023-04-30T11:09:14;100137.88;;;17.84;59.98
46347;BME280;32057;47.830;19.046;2023-04-30T11:11:43;100144.84;;;17.88;62.48
46347;BME280;32057;47.830;19.046;2023-04-30T11:14:10;100128.13;;;17.90;58.37
46347;BME280;32057;47.830;19.046;2023-04-30T11:16:36;100140.44;;;17.87;57.84
46347;BME280;32057;47.830;19.046;2023-04-30T11:19:10;100146.63;;;17.83;56.97
46347;BME280;32057;47.830;19.046;2023-04-30T11:27:25;100147.59;;;17.76;63.42
46347;BME280;32057;47.830;19.046;2023-04-30T11:29:51;100146.75;;;17.74;61.67
46347;BME280;32057;47.830;19.046;2023-04-30T11:32:18;100146.69;;;17.78;59.79
46347;BME280;32057;47.830;19.046;2023-04-30T11:34:47;100144.03;;;17.78;59.23
46347;BME280;32057;47.830;19.046;2023-04-30T11:37:29;100149.28;;;17.84;57.78
46347;BME280;32057;47.830;19.046;2023-04-30T11:39:56;100138.78;;;17.78;59.03
46347;BME280;32057;47.830;19.046;2023-04-30T11:42:22;100143.97;;;17.87;59.55
46347;BME280;32057;47.830;19.046;2023-04-30T11:44:47;100144.81;;;17.89;58.36
46347;BME280;32057;47.830;19.046;2023-04-30T11:47:13;100144.88;;;17.85;56.75
46347;BME280;32057;47.830;19.046;2023-04-30T11:49:40;100148.44;;;17.78;57.70
46347;BME280;32057;47.830;19.046;2023-04-30T11:52:06;100147.63;;;17.72;59.31
46347;BME280;32057;47.830;19.046;2023-04-30T11:54:35;100146.78;;;17.70;60.40
46347;BME280;32057;47.830;19.046;2023-04-30T11:57:02;100152.00;;;17.74;60.13
46347;BME280;32057;47.830;19.046;2023-04-30T11:59:29;100147.69;;;17.68;59.80
46347;BME280;32057;47.830;19.046;2023-04-30T12:01:55;100142.34;;;17.76;60.09
46347;BME280;32057;47.830;19.046;2023-04-30T12:04:21;100145.78;;;17.84;59.81
46347;BME280;32057;47.830;19.046;2023-04-30T12:06:47;100148.19;;;17.99;57.77
46347;BME280;32057;47.830;19.046;2023-04-30T12:09:12;100141.13;;;18.04;58.28
46347;BME280;32057;47.830;19.046;2023-04-30T12:11:38;100139.41;;;18.00;58.48
46347;BME280;32057;47.830;19.046;2023-04-30T12:14:09;100143.81;;;18.01;58.37
46347;BME280;32057;47.830;19.046;2023-04-30T12:16:49;100141.94;;;18.08;59.21
46347;BME280;32057;47.830;19.046;2023-04-30T12:19:20;100133.00;;;18.21;57.75
46347;BME280;32057;47.830;19.046;2023-04-30T12:21:47;100136.22;;;18.42;57.68
46347;BME280;32057;47.830;19.046;2023-04-30T12:24:18;100129.50;;;18.75;58.08
46347;BME280;32057;47.830;19.046;2023-04-30T12:26:44;100118.59;;;19.01;59.22
46347;BME280;32057;47.830;19.046;2023-04-30T12:29:13;100119.00;;;19.26;55.25
46347;BME280;32057;47.830;19.046;2023-04-30T12:31:40;100117.78;;;19.43;56.00
46347;BME280;32057;47.830;19.046;2023-04-30T12:34:12;100112.28;;;19.55;54.90
46347;BME280;32057;47.830;19.046;2023-04-30T12:36:41;100104.84;;;19.76;54.46
46347;BME280;32057;47.830;19.046;2023-04-30T12:39:12;100100.97;;;19.92;53.58
46347;BME280;32057;47.830;19.046;2023-04-30T12:41:46;100099.97;;;19.99;52.71
46347;BME280;32057;47.830;19.046;2023-04-30T12:44:20;100098.69;;;20.16;52.59
46347;BME280;32057;47.830;19.046;2023-04-30T12:46:47;100094.78;;;20.32;52.50
46347;BME280;32057;47.830;19.046;2023-04-30T12:52:01;100092.41;;;20.59;51.67
46347;BME280;32057;47.830;19.046;2023-04-30T12:54:28;100092.34;;;20.62;51.30
46347;BME280;32057;47.830;19.046;2023-04-30T12:57:07;100089.34;;;20.38;50.19
46347;BME280;32057;47.830;19.046;2023-04-30T12:59:35;100084.72;;;20.10;51.44
46347;BME280;32057;47.830;19.046;2023-04-30T13:02:09;100072.56;;;20.03;52.86